sensor_id;sensor_type;location;lat;lon;timestamp;temperature;humidity
64396;DHT22;50717;53.360;6.290;2023-09-18T00:00:50;16.80;99.90
64396;DHT22;50717;53.360;6.290;2023-09-18T00:03:17;16.50;99.90
64396;DHT22;50717;53.360;6.290;2023-09-18T00:05:45;15.90;99.90
64396;DHT22;50717;53.360;6.290;2023-09-18T00:08:11;17.30;99.90
64396;DHT22;50717;53.360;6.290;2023-09-18T00:10:36;16.90;99.90
64396;DHT22;50717;53.360;6.290;2023-09-18T00:13:02;15.80;99.90
64396;DHT22;50717;53.360;6.290;2023-09-18T00:15:28;17.10;99.90
64396;DHT22;50717;53.360;6.290;2023-09-18T00:17:54;16.10;99.90
64396;DHT22;50717;53.360;6.290;2023-09-18T00:20:20;16.10;99.90
64396;DHT22;50717;53.360;6.290;2023-09-18T00:22:53;16.00;99.90
64396;DHT22;50717;53.360;6.290;2023-09-18T00:25:19;16.50;99.90
64396;DHT22;50717;53.360;6.290;2023-09-18T00:27:44;16.10;99.90
64396;DHT22;50717;53.360;6.290;2023-09-18T00:30:10;16.20;99.90
64396;DHT22;50717;53.360;6.290;2023-09-18T00:32:37;16.70;99.90
64396;DHT22;50717;53.360;6.290;2023-09-18T00:35:03;15.70;99.90
64396;DHT22;50717;53.360;6.290;2023-09-18T00:37:29;16.90;99.90
64396;DHT22;50717;53.360;6.290;2023-09-18T00:39:54;16.20;99.90
64396;DHT22;50717;53.360;6.290;2023-09-18T00:42:20;16.80;99.90
64396;DHT22;50717;53.360;6.290;2023-09-18T00:44:48;16.90;99.90
64396;DHT22;50717;53.360;6.290;2023-09-18T00:47:16;16.00;99.90
64396;DHT22;50717;53.360;6.290;2023-09-18T00:49:44;16.20;99.90
64396;DHT22;50717;53.360;6.290;2023-09-18T00:52:11;16.70;99.90
64396;DHT22;50717;53.360;6.290;2023-09-18T00:54:38;16.00;99.90
64396;DHT22;50717;53.360;6.290;2023-09-18T00:57:05;16.90;99.90
64396;DHT22;50717;53.360;6.290;2023-09-18T00:59:31;15.90;99.90
64396;DHT22;50717;53.360;6.290;2023-09-18T01:01:59;16.00;99.90
64396;DHT22;50717;53.360;6.290;2023-09-18T01:04:25;16.80;99.90
64396;DHT22;50717;53.360;6.290;2023-09-18T01:06:52;15.60;99.90
64396;DHT22;50717;53.360;6.290;2023-09-18T01:09:18;16.00;99.90
64396;DHT22;50717;53.360;6.290;2023-09-18T01:14:33;16.80;99.90
64396;DHT22;50717;53.360;6.290;2023-09-18T01:17:02;16.80;99.90
64396;DHT22;50717;53.360;6.290;2023-09-18T01:19:45;16.60;99.90
64396;DHT22;50717;53.360;6.290;2023-09-18T01:22:17;15.60;99.90
64396;DHT22;50717;53.360;6.290;2023-09-18T01:24:45;17.00;99.90
64396;DHT22;50717;53.360;6.290;2023-09-18T01:27:12;16.60;99.90
64396;DHT22;50717;53.360;6.290;2023-09-18T01:29:38;15.50;99.90
64396;DHT22;50717;53.360;6.290;2023-09-18T01:32:05;15.70;99.90
64396;DHT22;50717;53.360;6.290;2023-09-18T01:34:36;16.50;99.90
64396;DHT22;50717;53.360;6.290;2023-09-18T01:37:06;15.50;99.90
64396;DHT22;50717;53.360;6.290;2023-09-18T01:39:34;16.30;99.90
64396;DHT22;50717;53.360;6.290;2023-09-18T01:42:02;16.40;99.90
64396;DHT22;50717;53.360;6.290;2023-09-18T01:44:28;15.60;99.90
64396;DHT22;50717;53.360;6.290;2023-09-18T01:46:57;16.70;99.90
64396;DHT22;50717;53.360;6.290;2023-09-18T01:49:34;16.50;99.90
64396;DHT22;50717;53.360;6.290;2023-09-18T01:52:00;15.70;99.90
64396;DHT22;50717;53.360;6.290;2023-09-18T01:54:25;16.00;99.90
64396;DHT22;50717;53.360;6.290;2023-09-18T01:56:52;16.80;99.90
64396;DHT22;50717;53.360;6.290;2023-09-18T01:59:19;17.00;99.90
64396;DHT22;50717;53.360;6.290;2023-09-18T02:01:45;16.70;99.90
64396;DHT22;50717;53.360;6.290;2023-09-18T02:04:11;15.50;99.90
64396;DHT22;50717;53.360;6.290;2023-09-18T02:06:37;16.50;99.90
64396;DHT22;50717;53.360;6.290;2023-09-18T02:09:03;16.60;99.90
64396;DHT22;50717;53.360;6.290;2023-09-18T02:11:33;15.80;99.90
64396;DHT22;50717;53.360;6.290;2023-09-18T02:13:59;16.60;99.90
64396;DHT22;50717;53.360;6.290;2023-09-18T02:16:24;16.50;99.90
64396;DHT22;50717;53.360;6.290;2023-09-18T02:18:54;16.80;99.90
64396;DHT22;50717;53.360;6.290;2023-09-18T02:21:21;16.60;99.90
64396;DHT22;50717;53.360;6.290;2023-09-18T02:23:49;16.30;99.90
64396;DHT22;50717;53.360;6.290;2023-09-18T02:26:17;15.90;99.90
64396;DHT22;50717;53.360;6.290;2023-09-18T02:28:43;15.80;99.90
64396;DHT22;50717;53.360;6.290;2023-09-18T02:31:08;17.00;99.90
64396;DHT22;50717;53.360;6.290;2023-09-18T02:33:34;17.10;99.90
64396;DHT22;50717;53.360;6.290;2023-09-18T02:36:00;16.00;99.90
64396;DHT22;50717;53.360;6.290;2023-09-18T02:38:26;17.20;99.90
64396;DHT22;50717;53.360;6.290;2023-09-18T02:40:51;17.40;99.90
64396;DHT22;50717;53.360;6.290;2023-09-18T02:43:18;16.10;99.90
64396;DHT22;50717;53.360;6.290;2023-09-18T02:45:44;17.10;99.90
64396;DHT22;50717;53.360;6.290;2023-09-18T02:48:11;17.20;99.90
64396;DHT22;50717;53.360;6.290;2023-09-18T02:50:37;17.60;99.90
64396;DHT22;50717;53.360;6.290;2023-09-18T02:53:05;17.70;99.90
64396;DHT22;50717;53.360;6.290;2023-09-18T02:55:31;17.40;99.90
64396;DHT22;50717;53.360;6.290;2023-09-18T02:57:56;16.40;99.90
64396;DHT22;50717;53.360;6.290;2023-09-18T03:00:22;17.40;99.90
64396;DHT22;50717;53.360;6.290;2023-09-18T03:02:48;17.20;99.90
64396;DHT22;50717;53.360;6.290;2023-09-18T03:05:14;16.80;99.90
64396;DHT22;50717;53.360;6.290;2023-09-18T03:07:39;16.70;99.90
64396;DHT22;50717;53.360;6.290;2023-09-18T03:10:05;16.20;99.90
64396;DHT22;50717;53.360;6.290;2023-09-18T03:12:31;16.50;99.90
64396;DHT22;50717;53.360;6.290;2023-09-18T03:14:57;16.10;99.90
64396;DHT22;50717;53.360;6.290;2023-09-18T03:17:23;17.30;99.90
64396;DHT22;50717;53.360;6.290;2023-09-18T03:19:49;17.60;99.90
64396;DHT22;50717;53.360;6.290;2023-09-18T03:22:15;17.20;99.90
64396;DHT22;50717;53.360;6.290;2023-09-18T03:24:40;17.70;99.90
64396;DHT22;50717;53.360;6.290;2023-09-18T03:27:06;16.60;99.90
64396;DHT22;50717;53.360;6.290;2023-09-18T03:29:32;17.20;99.90
64396;DHT22;50717;53.360;6.290;2023-09-18T03:31:57;17.00;99.90
64396;DHT22;50717;53.360;6.290;2023-09-18T03:34:25;17.80;99.90
64396;DHT22;50717;53.360;6.290;2023-09-18T03:36:53;17.00;99.90
64396;DHT22;50717;53.360;6.290;2023-09-18T03:39:19;16.20;99.90
64396;DHT22;50717;53.360;6.290;2023-09-18T03:41:45;16.40;99.90
64396;DHT22;50717;53.360;6.290;2023-09-18T03:44:11;17.70;99.90
64396;DHT22;50717;53.360;6.290;2023-09-18T03:46:37;17.40;99.90
64396;DHT22;50717;53.360;6.290;2023-09-18T03:49:02;17.50;99.90
64396;DHT22;50717;53.360;6.290;2023-09-18T03:51:29;16.30;99.90
64396;DHT22;50717;53.360;6.290;2023-09-18T03:53:55;17.90;99.90
64396;DHT22;50717;53.360;6.290;2023-09-18T03:56:22;16.30;99.90
64396;DHT22;50717;53.360;6.290;2023-09-18T03:58:48;17.70;99.90
64396;DHT22;50717;53.360;6.290;2023-09-18T04:01:18;16.20;99.90
64396;DHT22;50717;53.360;6.290;2023-09-18T04:03:44;17.80;99.90
64396;DHT22;50717;53.360;6.290;2023-09-18T04:06:09;17.70;99.90
64396;DHT22;50717;53.360;6.290;2023-09-18T04:08:35;17.00;99.90
64396;DHT22;50717;53.360;6.290;2023-09-18T04:11:00;16.60;99.90
64396;DHT22;50717;53.360;6.290;2023-09-18T04:13:27;16.80;99.90
64396;DHT22;50717;53.360;6.290;2023-09-18T04:15:53;17.00;99.90
64396;DHT22;50717;53.360;6.290;2023-09-18T04:18:23;17.40;99.90
64396;DHT22;50717;53.360;6.290;2023-09-18T04:20:48;16.70;99.90
64396;DHT22;50717;53.360;6.290;2023-09-18T04:23:22;17.40;99.90
64396;DHT22;50717;53.360;6.290;2023-09-18T04:25:49;16.90;99.90
64396;DHT22;50717;53.360;6.290;2023-09-18T04:28:16;17.00;99.90
64396;DHT22;50717;53.360;6.290;2023-09-18T04:30:42;17.80;99.90
64396;DHT22;50717;53.360;6.290;2023-09-18T04:33:08;17.80;99.90
64396;DHT22;50717;53.360;6.290;2023-09-18T04:35:34;16.60;99.90
64396;DHT22;50717;53.360;6.290;2023-09-18T04:38:00;17.00;99.90
64396;DHT22;50717;53.360;6.290;2023-09-18T04:40:25;16.40;99.90
64396;DHT22;50717;53.360;6.290;2023-09-18T04:42:58;16.30;99.90
64396;DHT22;50717;53.360;6.290;2023-09-18T04:45:24;16.70;99.90
64396;DHT22;50717;53.360;6.290;2023-09-18T04:47:51;16.60;99.90
64396;DHT22;50717;53.360;6.290;2023-09-18T04:50:17;17.50;99.90
64396;DHT22;50717;53.360;6.290;2023-09-18T04:52:43;17.70;99.90
64396;DHT22;50717;53.360;6.290;2023-09-18T04:55:10;17.70;99.90
64396;DHT22;50717;53.360;6.290;2023-09-18T04:57:35;16.60;99.90
64396;DHT22;50717;53.360;6.290;2023-09-18T05:00:02;17.70;99.90
64396;DHT22;50717;53.360;6.290;2023-09-18T05:02:28;17.20;99.90
64396;DHT22;50717;53.360;6.290;2023-09-18T05:04:56;16.70;99.90
64396;DHT22;50717;53.360;6.290;2023-09-18T05:07:22;18.20;99.90
64396;DHT22;50717;53.360;6.290;2023-09-18T05:09:47;16.70;99.90
64396;DHT22;50717;53.360;6.290;2023-09-18T05:12:13;17.80;99.90
64396;DHT22;50717;53.360;6.290;2023-09-18T05:14:41;17.60;99.90
64396;DHT22;50717;53.360;6.290;2023-09-18T05:17:15;17.50;99.90
64396;DHT22;50717;53.360;6.290;2023-09-18T05:19:41;17.40;99.90
64396;DHT22;50717;53.360;6.290;2023-09-18T05:22:08;16.80;99.90
64396;DHT22;50717;53.360;6.290;2023-09-18T05:24:36;17.20;99.90
64396;DHT22;50717;53.360;6.290;2023-09-18T05:27:02;16.70;99.90
64396;DHT22;50717;53.360;6.290;2023-09-18T05:29:28;17.90;99.90
64396;DHT22;50717;53.360;6.290;2023-09-18T05:31:54;16.70;99.90
64396;DHT22;50717;53.360;6.290;2023-09-18T05:34:19;16.50;99.90
64396;DHT22;50717;53.360;6.290;2023-09-18T05:36:45;17.30;99.90
64396;DHT22;50717;53.360;6.290;2023-09-18T05:39:11;17.20;99.90
64396;DHT22;50717;53.360;6.290;2023-09-18T05:41:41;17.90;99.90
64396;DHT22;50717;53.360;6.290;2023-09-18T05:44:07;16.90;99.90
64396;DHT22;50717;53.360;6.290;2023-09-18T05:46:36;17.80;99.90
64396;DHT22;50717;53.360;6.290;2023-09-18T05:49:02;17.80;99.90
64396;DHT22;50717;53.360;6.290;2023-09-18T05:51:29;17.80;99.90
64396;DHT22;50717;53.360;6.290;2023-09-18T05:53:55;17.80;99.90
64396;DHT22;50717;53.360;6.290;2023-09-18T05:56:21;16.70;99.90
64396;DHT22;50717;53.360;6.290;2023-09-18T05:58:47;17.10;99.90
64396;DHT22;50717;53.360;6.290;2023-09-18T06:01:12;18.00;99.90
64396;DHT22;50717;53.360;6.290;2023-09-18T06:03:38;17.10;99.90
64396;DHT22;50717;53.360;6.290;2023-09-18T06:06:05;18.30;99.90
64396;DHT22;50717;53.360;6.290;2023-09-18T06:08:31;17.80;99.90
64396;DHT22;50717;53.360;6.290;2023-09-18T06:10:59;16.90;99.90
64396;DHT22;50717;53.360;6.290;2023-09-18T06:13:26;18.10;99.90
64396;DHT22;50717;53.360;6.290;2023-09-18T06:15:53;17.80;99.90
64396;DHT22;50717;53.360;6.290;2023-09-18T06:18:20;17.80;99.90
64396;DHT22;50717;53.360;6.290;2023-09-18T06:20:49;17.80;99.90
64396;DHT22;50717;53.360;6.290;2023-09-18T06:23:15;17.30;99.90
64396;DHT22;50717;53.360;6.290;2023-09-18T06:25:41;17.20;99.90
64396;DHT22;50717;53.360;6.290;2023-09-18T06:28:07;18.10;99.90
64396;DHT22;50717;53.360;6.290;2023-09-18T06:30:33;18.20;99.90
64396;DHT22;50717;53.360;6.290;2023-09-18T06:33:02;17.40;99.90
64396;DHT22;50717;53.360;6.290;2023-09-18T06:35:30;17.60;99.90
64396;DHT22;50717;53.360;6.290;2023-09-18T06:37:56;17.10;99.90
64396;DHT22;50717;53.360;6.290;2023-09-18T06:40:24;17.60;99.90
64396;DHT22;50717;53.360;6.290;2023-09-18T06:42:50;17.60;99.90
64396;DHT22;50717;53.360;6.290;2023-09-18T06:45:17;17.40;99.90
64396;DHT22;50717;53.360;6.290;2023-09-18T06:47:43;18.20;99.90
64396;DHT22;50717;53.360;6.290;2023-09-18T06:50:09;18.40;99.90
64396;DHT22;50717;53.360;6.290;2023-09-18T06:52:37;17.70;99.90
64396;DHT22;50717;53.360;6.290;2023-09-18T06:55:02;18.60;99.90
64396;DHT22;50717;53.360;6.290;2023-09-18T06:57:28;18.50;99.90
64396;DHT22;50717;53.360;6.290;2023-09-18T06:59:54;17.40;99.90
64396;DHT22;50717;53.360;6.290;2023-09-18T07:02:20;17.70;99.90
64396;DHT22;50717;53.360;6.290;2023-09-18T07:04:46;18.30;99.90
64396;DHT22;50717;53.360;6.290;2023-09-18T07:07:12;17.70;99.90
64396;DHT22;50717;53.360;6.290;2023-09-18T07:09:39;17.50;99.90
64396;DHT22;50717;53.360;6.290;2023-09-18T07:12:06;17.60;99.90
64396;DHT22;50717;53.360;6.290;2023-09-18T07:14:31;18.60;99.90
64396;DHT22;50717;53.360;6.290;2023-09-18T07:16:57;18.90;99.90
64396;DHT22;50717;53.360;6.290;2023-09-18T07:19:23;18.10;99.90
64396;DHT22;50717;53.360;6.290;2023-09-18T07:21:48;18.60;99.90
64396;DHT22;50717;53.360;6.290;2023-09-18T07:24:15;17.80;99.90
64396;DHT22;50717;53.360;6.290;2023-09-18T07:26:47;18.90;99.90
64396;DHT22;50717;53.360;6.290;2023-09-18T07:29:16;18.90;99.90
64396;DHT22;50717;53.360;6.290;2023-09-18T07:31:43;19.00;99.90
64396;DHT22;50717;53.360;6.290;2023-09-18T07:34:09;19.10;99.90
64396;DHT22;50717;53.360;6.290;2023-09-18T07:36:35;18.70;99.90
64396;DHT22;50717;53.360;6.290;2023-09-18T07:39:01;18.00;99.90
64396;DHT22;50717;53.360;6.290;2023-09-18T07:41:26;17.80;99.90
64396;DHT22;50717;53.360;6.290;2023-09-18T07:43:52;18.90;99.90
64396;DHT22;50717;53.360;6.290;2023-09-18T07:46:18;19.20;99.90
64396;DHT22;50717;53.360;6.290;2023-09-18T07:48:44;17.80;99.90
64396;DHT22;50717;53.360;6.290;2023-09-18T07:51:13;17.50;99.90
64396;DHT22;50717;53.360;6.290;2023-09-18T07:53:39;18.90;99.90
64396;DHT22;50717;53.360;6.290;2023-09-18T07:56:05;18.30;99.90
64396;DHT22;50717;53.360;6.290;2023-09-18T07:58:31;17.60;99.90
64396;DHT22;50717;53.360;6.290;2023-09-18T08:00:59;18.40;99.90
64396;DHT22;50717;53.360;6.290;2023-09-18T08:03:25;18.60;99.90
64396;DHT22;50717;53.360;6.290;2023-09-18T08:05:52;18.40;99.90
64396;DHT22;50717;53.360;6.290;2023-09-18T08:08:19;18.40;99.90
64396;DHT22;50717;53.360;6.290;2023-09-18T08:10:46;18.40;99.90
64396;DHT22;50717;53.360;6.290;2023-09-18T08:13:12;17.70;99.90
64396;DHT22;50717;53.360;6.290;2023-09-18T08:15:38;17.70;99.90
64396;DHT22;50717;53.360;6.290;2023-09-18T08:18:04;17.90;99.90
64396;DHT22;50717;53.360;6.290;2023-09-18T08:20:30;19.40;99.90
64396;DHT22;50717;53.360;6.290;2023-09-18T08:22:56;19.20;99.90
64396;DHT22;50717;53.360;6.290;2023-09-18T08:25:22;19.20;99.90
64396;DHT22;50717;53.360;6.290;2023-09-18T08:27:48;19.00;99.90
64396;DHT22;50717;53.360;6.290;2023-09-18T08:30:14;18.30;99.90
64396;DHT22;50717;53.360;6.290;2023-09-18T08:32:42;18.70;99.90
64396;DHT22;50717;53.360;6.290;2023-09-18T08:35:08;17.80;99.90
64396;DHT22;50717;53.360;6.290;2023-09-18T08:37:34;18.00;99.90
64396;DHT22;50717;53.360;6.290;2023-09-18T08:40:00;18.40;99.90
64396;DHT22;50717;53.360;6.290;2023-09-18T08:42:30;19.30;99.90
64396;DHT22;50717;53.360;6.290;2023-09-18T08:44:58;18.20;99.90
64396;DHT22;50717;53.360;6.290;2023-09-18T08:47:26;17.90;99.90
64396;DHT22;50717;53.360;6.290;2023-09-18T08:49:54;18.60;99.90
64396;DHT22;50717;53.360;6.290;2023-09-18T08:52:21;18.40;99.90
64396;DHT22;50717;53.360;6.290;2023-09-18T08:54:49;17.80;99.90
64396;DHT22;50717;53.360;6.290;2023-09-18T08:57:16;18.10;99.90
64396;DHT22;50717;53.360;6.290;2023-09-18T08:59:43;18.50;99.90
64396;DHT22;50717;53.360;6.290;2023-09-18T09:02:09;18.50;99.90
64396;DHT22;50717;53.360;6.290;2023-09-18T09:04:38;18.50;99.90
64396;DHT22;50717;53.360;6.290;2023-09-18T09:07:04;19.00;99.90
64396;DHT22;50717;53.360;6.290;2023-09-18T09:09:30;19.50;99.90
64396;DHT22;50717;53.360;6.290;2023-09-18T09:11:56;18.20;99.90
64396;DHT22;50717;53.360;6.290;2023-09-18T09:14:22;18.90;99.90
64396;DHT22;50717;53.360;6.290;2023-09-18T09:16:54;19.60;99.90
64396;DHT22;50717;53.360;6.290;2023-09-18T09:19:34;18.80;99.90
64396;DHT22;50717;53.360;6.290;2023-09-18T09:22:04;18.90;99.90
64396;DHT22;50717;53.360;6.290;2023-09-18T09:24:42;18.10;99.90
64396;DHT22;50717;53.360;6.290;2023-09-18T09:27:09;19.30;99.90
64396;DHT22;50717;53.360;6.290;2023-09-18T09:29:35;19.60;99.90
64396;DHT22;50717;53.360;6.290;2023-09-18T09:32:17;19.70;99.90
64396;DHT22;50717;53.360;6.290;2023-09-18T09:34:44;18.80;99.90
64396;DHT22;50717;53.360;6.290;2023-09-18T09:37:11;18.90;99.90
64396;DHT22;50717;53.360;6.290;2023-09-18T09:39:55;19.20;99.90
64396;DHT22;50717;53.360;6.290;2023-09-18T09:42:21;20.00;99.90
64396;DHT22;50717;53.360;6.290;2023-09-18T09:45:02;19.80;99.90
64396;DHT22;50717;53.360;6.290;2023-09-18T09:47:33;19.40;99.90
64396;DHT22;50717;53.360;6.290;2023-09-18T09:50:12;19.10;99.90
64396;DHT22;50717;53.360;6.290;2023-09-18T09:52:56;18.70;99.90
64396;DHT22;50717;53.360;6.290;2023-09-18T09:55:26;19.20;99.90
64396;DHT22;50717;53.360;6.290;2023-09-18T09:57:59;18.60;99.90
64396;DHT22;50717;53.360;6.290;2023-09-18T10:03:03;20.30;99.90
64396;DHT22;50717;53.360;6.290;2023-09-18T10:05:35;19.10;99.90
64396;DHT22;50717;53.360;6.290;2023-09-18T10:08:21;20.20;99.90
64396;DHT22;50717;53.360;6.290;2023-09-18T10:10:51;20.30;99.90
64396;DHT22;50717;53.360;6.290;2023-09-18T10:16:05;20.40;99.90
64396;DHT22;50717;53.360;6.290;2023-09-18T10:21:18;20.20;99.90
64396;DHT22;50717;53.360;6.290;2023-09-18T10:23:58;19.60;99.90
64396;DHT22;50717;53.360;6.290;2023-09-18T10:26:25;20.50;99.90
64396;DHT22;50717;53.360;6.290;2023-09-18T10:28:56;20.10;99.90
64396;DHT22;50717;53.360;6.290;2023-09-18T10:31:28;21.10;99.90
64396;DHT22;50717;53.360;6.290;2023-09-18T10:33:56;20.30;99.90
64396;DHT22;50717;53.360;6.290;2023-09-18T10:36:24;21.20;99.90
64396;DHT22;50717;53.360;6.290;2023-09-18T10:38:51;21.20;99.90
64396;DHT22;50717;53.360;6.290;2023-09-18T10:41:20;21.20;99.90
64396;DHT22;50717;53.360;6.290;2023-09-18T10:43:46;21.30;99.90
64396;DHT22;50717;53.360;6.290;2023-09-18T10:46:15;21.30;99.90
64396;DHT22;50717;53.360;6.290;2023-09-18T10:48:42;21.20;99.90
64396;DHT22;50717;53.360;6.290;2023-09-18T10:51:10;21.20;99.90
64396;DHT22;50717;53.360;6.290;2023-09-18T10:53:36;20.50;99.90
64396;DHT22;50717;53.360;6.290;2023-09-18T10:56:02;19.90;99.90
64396;DHT22;50717;53.360;6.290;2023-09-18T10:58:30;20.80;99.90
64396;DHT22;50717;53.360;6.290;2023-09-18T11:00:57;20.70;99.90
64396;DHT22;50717;53.360;6.290;2023-09-18T11:03:24;20.90;99.90
64396;DHT22;50717;53.360;6.290;2023-09-18T11:06:03;21.30;99.90
64396;DHT22;50717;53.360;6.290;2023-09-18T11:11:06;21.10;99.90
64396;DHT22;50717;53.360;6.290;2023-09-18T11:13:40;21.70;99.90
64396;DHT22;50717;53.360;6.290;2023-09-18T11:18:53;22.00;99.90
64396;DHT22;50717;53.360;6.290;2023-09-18T11:21:28;21.50;99.90
64396;DHT22;50717;53.360;6.290;2023-09-18T11:24:00;21.90;99.90
64396;DHT22;50717;53.360;6.290;2023-09-18T11:29:08;21.80;99.90
64396;DHT22;50717;53.360;6.290;2023-09-18T11:31:48;21.50;99.90
64396;DHT22;50717;53.360;6.290;2023-09-18T11:34:30;21.30;99.90
64396;DHT22;50717;53.360;6.290;2023-09-18T11:37:19;21.60;99.90
64396;DHT22;50717;53.360;6.290;2023-09-18T11:39:45;21.50;99.90
64396;DHT22;50717;53.360;6.290;2023-09-18T11:42:21;21.30;99.90
64396;DHT22;50717;53.360;6.290;2023-09-18T11:44:52;21.20;99.90
64396;DHT22;50717;53.360;6.290;2023-09-18T11:47:20;21.20;99.90
64396;DHT22;50717;53.360;6.290;2023-09-18T11:49:51;21.70;99.90
64396;DHT22;50717;53.360;6.290;2023-09-18T11:52:29;21.70;99.90
64396;DHT22;50717;53.360;6.290;2023-09-18T11:54:57;22.00;99.90
64396;DHT22;50717;53.360;6.290;2023-09-18T11:57:23;22.20;99.90
64396;DHT22;50717;53.360;6.290;2023-09-18T11:59:50;22.20;99.90
64396;DHT22;50717;53.360;6.290;2023-09-18T12:04:56;22.50;99.90
64396;DHT22;50717;53.360;6.290;2023-09-18T12:07:23;22.50;99.90
64396;DHT22;50717;53.360;6.290;2023-09-18T12:09:50;21.90;99.90
64396;DHT22;50717;53.360;6.290;2023-09-18T12:12:17;21.60;99.90
64396;DHT22;50717;53.360;6.290;2023-09-18T12:14:43;21.10;99.90
64396;DHT22;50717;53.360;6.290;2023-09-18T12:17:14;21.30;99.90
64396;DHT22;50717;53.360;6.290;2023-09-18T12:19:53;21.90;99.90
64396;DHT22;50717;53.360;6.290;2023-09-18T12:22:29;21.80;99.90
64396;DHT22;50717;53.360;6.290;2023-09-18T12:25:12;22.70;99.90
64396;DHT22;50717;53.360;6.290;2023-09-18T12:27:42;22.70;99.90
64396;DHT22;50717;53.360;6.290;2023-09-18T12:30:09;22.60;99.90
64396;DHT22;50717;53.360;6.290;2023-09-18T12:32:39;22.60;99.90
64396;DHT22;50717;53.360;6.290;2023-09-18T12:35:08;22.70;99.90
64396;DHT22;50717;53.360;6.290;2023-09-18T12:37:35;22.60;99.90
64396;DHT22;50717;53.360;6.290;2023-09-18T12:40:04;22.80;99.90
64396;DHT22;50717;53.360;6.290;2023-09-18T12:42:37;23.10;99.90
64396;DHT22;50717;53.360;6.290;2023-09-18T12:45:07;22.90;99.90
64396;DHT22;50717;53.360;6.290;2023-09-18T12:47:33;23.10;99.90
64396;DHT22;50717;53.360;6.290;2023-09-18T12:50:06;23.00;99.90
64396;DHT22;50717;53.360;6.290;2023-09-18T12:52:37;23.40;99.90
64396;DHT22;50717;53.360;6.290;2023-09-18T12:55:03;23.50;99.90
64396;DHT22;50717;53.360;6.290;2023-09-18T12:57:32;23.10;99.90
64396;DHT22;50717;53.360;6.290;2023-09-18T12:59:58;23.10;99.90
64396;DHT22;50717;53.360;6.290;2023-09-18T13:02:24;22.90;99.90
64396;DHT22;50717;53.360;6.290;2023-09-18T13:04:56;23.10;99.90
64396;DHT22;50717;53.360;6.290;2023-09-18T13:07:23;23.00;99.90
64396;DHT22;50717;53.360;6.290;2023-09-18T13:10:05;22.70;99.90
64396;DHT22;50717;53.360;6.290;2023-09-18T13:15:06;22.50;99.90
64396;DHT22;50717;53.360;6.290;2023-09-18T13:17:44;23.20;99.90
64396;DHT22;50717;53.360;6.290;2023-09-18T13:20:15;23.10;99.90
64396;DHT22;50717;53.360;6.290;2023-09-18T13:22:42;23.70;99.90
64396;DHT22;50717;53.360;6.290;2023-09-18T13:25:10;23.40;99.90
64396;DHT22;50717;53.360;6.290;2023-09-18T13:27:37;23.50;99.90
64396;DHT22;50717;53.360;6.290;2023-09-18T13:30:08;23.10;99.90
64396;DHT22;50717;53.360;6.290;2023-09-18T13:32:35;22.50;99.90
64396;DHT22;50717;53.360;6.290;2023-09-18T13:35:02;22.30;99.90
64396;DHT22;50717;53.360;6.290;2023-09-18T13:37:31;22.50;99.90
64396;DHT22;50717;53.360;6.290;2023-09-18T13:39:57;22.40;99.90
64396;DHT22;50717;53.360;6.290;2023-09-18T13:42:23;22.80;99.90
64396;DHT22;50717;53.360;6.290;2023-09-18T13:44:48;22.80;99.90
64396;DHT22;50717;53.360;6.290;2023-09-18T13:47:15;22.70;99.90
64396;DHT22;50717;53.360;6.290;2023-09-18T13:49:41;22.40;99.90
64396;DHT22;50717;53.360;6.290;2023-09-18T13:52:06;22.30;99.90
64396;DHT22;50717;53.360;6.290;2023-09-18T13:54:32;22.40;99.90
64396;DHT22;50717;53.360;6.290;2023-09-18T13:56:58;22.90;99.90
64396;DHT22;50717;53.360;6.290;2023-09-18T13:59:24;23.20;99.90
64396;DHT22;50717;53.360;6.290;2023-09-18T14:01:50;22.90;99.90
64396;DHT22;50717;53.360;6.290;2023-09-18T14:04:17;22.70;99.90
64396;DHT22;50717;53.360;6.290;2023-09-18T14:06:43;22.80;99.90
64396;DHT22;50717;53.360;6.290;2023-09-18T14:09:08;22.70;99.90
64396;DHT22;50717;53.360;6.290;2023-09-18T14:11:35;23.10;99.90
64396;DHT22;50717;53.360;6.290;2023-09-18T14:14:03;23.70;99.90
64396;DHT22;50717;53.360;6.290;2023-09-18T14:16:29;23.20;99.90
64396;DHT22;50717;53.360;6.290;2023-09-18T14:18:59;23.10;99.90
64396;DHT22;50717;53.360;6.290;2023-09-18T14:21:25;22.40;99.90
64396;DHT22;50717;53.360;6.290;2023-09-18T14:23:53;22.10;99.90
64396;DHT22;50717;53.360;6.290;2023-09-18T14:26:19;22.40;99.90
64396;DHT22;50717;53.360;6.290;2023-09-18T14:28:45;23.40;99.90
64396;DHT22;50717;53.360;6.290;2023-09-18T14:31:12;23.60;99.90
64396;DHT22;50717;53.360;6.290;2023-09-18T14:33:37;24.30;99.90
64396;DHT22;50717;53.360;6.290;2023-09-18T14:36:03;24.30;99.90
64396;DHT22;50717;53.360;6.290;2023-09-18T14:38:29;24.50;99.90
64396;DHT22;50717;53.360;6.290;2023-09-18T14:40:55;24.40;99.90
64396;DHT22;50717;53.360;6.290;2023-09-18T14:43:26;24.20;99.90
64396;DHT22;50717;53.360;6.290;2023-09-18T14:45:52;24.30;99.90
64396;DHT22;50717;53.360;6.290;2023-09-18T14:48:21;24.00;99.90
64396;DHT22;50717;53.360;6.290;2023-09-18T14:50:56;23.70;99.90
64396;DHT22;50717;53.360;6.290;2023-09-18T14:53:22;23.10;99.90
64396;DHT22;50717;53.360;6.290;2023-09-18T14:55:48;22.80;99.90
64396;DHT22;50717;53.360;6.290;2023-09-18T14:58:14;22.40;99.90
64396;DHT22;50717;53.360;6.290;2023-09-18T15:00:40;22.30;99.90
64396;DHT22;50717;53.360;6.290;2023-09-18T15:03:05;21.60;99.90
64396;DHT22;50717;53.360;6.290;2023-09-18T15:05:31;21.60;99.90
64396;DHT22;50717;53.360;6.290;2023-09-18T15:07:57;21.80;99.90
64396;DHT22;50717;53.360;6.290;2023-09-18T15:10:22;21.50;99.90
64396;DHT22;50717;53.360;6.290;2023-09-18T15:12:48;21.70;99.90
64396;DHT22;50717;53.360;6.290;2023-09-18T15:15:14;21.40;99.90
64396;DHT22;50717;53.360;6.290;2023-09-18T15:17:39;21.40;99.90
64396;DHT22;50717;53.360;6.290;2023-09-18T15:20:06;21.00;99.90
64396;DHT22;50717;53.360;6.290;2023-09-18T15:22:32;22.00;99.90
64396;DHT22;50717;53.360;6.290;2023-09-18T15:24:57;22.70;99.90
64396;DHT22;50717;53.360;6.290;2023-09-18T15:27:23;23.10;99.90
64396;DHT22;50717;53.360;6.290;2023-09-18T15:29:49;23.40;99.90
64396;DHT22;50717;53.360;6.290;2023-09-18T15:32:15;23.80;99.90
64396;DHT22;50717;53.360;6.290;2023-09-18T15:34:41;23.90;99.90
64396;DHT22;50717;53.360;6.290;2023-09-18T15:37:07;23.70;99.90
64396;DHT22;50717;53.360;6.290;2023-09-18T15:39:32;23.20;99.90
64396;DHT22;50717;53.360;6.290;2023-09-18T15:42:00;22.90;99.90
64396;DHT22;50717;53.360;6.290;2023-09-18T15:44:26;22.60;99.90
64396;DHT22;50717;53.360;6.290;2023-09-18T15:46:52;22.30;99.90
64396;DHT22;50717;53.360;6.290;2023-09-18T15:49:17;21.60;99.90
64396;DHT22;50717;53.360;6.290;2023-09-18T15:51:44;21.60;99.90
64396;DHT22;50717;53.360;6.290;2023-09-18T15:54:09;21.60;99.90
64396;DHT22;50717;53.360;6.290;2023-09-18T15:56:35;21.40;99.90